Tracy City, Tennessee
Current Conditions -  °F | °C
As of 8:35 AM on Saturday 22 Nov 2014 (Local Time) from KBGF Reporting Station
Clear Clear  
Wind Chill: 50°   Ceiling: Unl
Heat Index: 50°   Visibility: 10mi
Dew Point: 34°   Wind: 16mph
Humidity: 54%   Direction: 150°SSE
Pressure: 30.39"   Gusts: NA
Location:  35.26°N, 85.74°W
Report Text: KBGF 221435Z AUTO 15014KT 10SM CLR 10/01 A3039 RMK
Loading
Personal Weather Stations






























Interactive Weather Map New forecast layout! Learn more

10-Day Weather Forecast

Advertisements
Track Severe Weather on mobile